Time;durP1;ratioP1;P1;durP2;ratioP2;P2;SDS_P1;SDS_P2;PMS_P1;PMS_P2;Temp;Humidity;BMP_temperature;BMP_pressure;BME280_temperature;BME280_humidity;BME280_pressure;Samples;Min_cycle;Max_cycle;Signal;HPM_P1;HPM_P2
2022/06/01 00:00:02;;;;;;;5.13;3.13;;;12.70;99.90;;;;;;5006058;28;20442;-74
2022/06/01 00:02:48;;;;;;;3.63;2.60;;;12.60;99.90;;;;;;5002409;28;20467;-73
2022/06/01 00:05:34;;;;;;;5.70;2.50;;;12.60;99.90;;;;;;5005738;28;20793;-74
2022/06/01 00:08:19;;;;;;;4.67;2.27;;;12.60;99.90;;;;;;5013655;28;20504;-73
2022/06/01 00:11:06;;;;;;;4.90;2.73;;;12.50;99.90;;;;;;5010401;28;20429;-74
2022/06/01 00:13:53;;;;;;;4.10;2.57;;;12.50;99.90;;;;;;5010128;28;20436;-74
2022/06/01 00:16:40;;;;;;;4.50;2.43;;;12.60;99.90;;;;;;5012164;28;20566;-74
2022/06/01 00:19:26;;;;;;;5.30;2.83;;;12.70;99.90;;;;;;5012148;28;20480;-73
2022/06/01 00:22:14;;;;;;;6.40;2.87;;;12.70;99.90;;;;;;5009077;28;20431;-74
2022/06/01 00:24:59;;;;;;;4.10;2.90;;;12.60;99.90;;;;;;5012398;28;20954;-74
2022/06/01 00:27:45;;;;;;;4.27;2.33;;;12.60;99.90;;;;;;5014071;28;20462;-74
2022/06/01 00:30:32;;;;;;;3.90;2.73;;;12.50;99.90;;;;;;5012791;28;20425;-74
2022/06/01 00:33:19;;;;;;;3.70;2.40;;;12.50;99.90;;;;;;5007586;28;20452;-73
2022/06/01 00:36:06;;;;;;;3.37;2.60;;;12.40;99.90;;;;;;5008449;28;20453;-74
2022/06/01 00:38:51;;;;;;;6.33;3.50;;;12.30;99.90;;;;;;5007409;28;20482;-74
2022/06/01 00:41:37;;;;;;;3.83;2.93;;;12.30;99.90;;;;;;5001133;28;20830;-73
2022/06/01 00:44:22;;;;;;;4.13;2.87;;;12.30;99.90;;;;;;5011631;28;20445;-73
2022/06/01 00:47:10;;;;;;;3.90;2.90;;;12.40;99.90;;;;;;5012669;28;20951;-74
2022/06/01 00:50:01;;;;;;;3.20;2.50;;;12.40;99.90;;;;;;5011970;28;20569;-73
2022/06/01 00:52:51;;;;;;;3.47;2.90;;;12.30;99.90;;;;;;5006965;28;20592;-74
2022/06/01 00:55:42;;;;;;;4.57;2.77;;;12.20;99.90;;;;;;5010963;28;20415;-72
2022/06/01 00:58:31;;;;;;;4.00;3.20;;;12.10;99.90;;;;;;5009470;28;20605;-74
2022/06/01 01:01:21;;;;;;;3.60;3.00;;;11.90;99.90;;;;;;5010547;28;20996;-74
2022/06/01 01:04:08;;;;;;;3.43;2.60;;;11.90;99.90;;;;;;5011748;28;20580;-74
2022/06/01 01:06:56;;;;;;;7.83;3.27;;;11.80;99.90;;;;;;5013571;28;20424;-73
2022/06/01 01:09:41;;;;;;;4.90;3.40;;;11.90;99.90;;;;;;5040586;23;20561;-77
2022/06/01 01:12:55;;;;;;;3.60;2.90;;;11.80;99.90;;;;;;5027253;28;21012;-76
2022/06/01 01:15:36;;;;;;;5.30;3.30;;;11.80;99.90;;;;;;5031023;28;21035;-77
2022/06/01 01:18:26;;;;;;;3.50;2.43;;;11.70;99.90;;;;;;5031403;28;20820;-76
2022/06/01 01:21:20;;;;;;;3.53;2.70;;;11.70;99.90;;;;;;5026691;28;20439;-76
2022/06/01 01:24:14;;;;;;;4.87;3.07;;;11.50;99.90;;;;;;5030077;28;20461;-76
2022/06/01 01:27:01;;;;;;;3.50;2.47;;;11.50;99.90;;;;;;5028630;28;20806;-77
2022/06/01 01:29:46;;;;;;;3.77;2.60;;;11.60;99.90;;;;;;5026621;28;20464;-77
2022/06/01 01:32:32;;;;;;;3.40;2.50;;;11.60;99.90;;;;;;5026807;28;20426;-76
2022/06/01 01:35:19;;;;;;;3.10;2.30;;;11.60;99.90;;;;;;5026374;28;20949;-76
2022/06/01 01:38:09;;;;;;;4.10;2.40;;;11.40;99.90;;;;;;5023607;28;20945;-76
2022/06/01 01:41:11;;;;;;;3.70;2.70;;;11.40;99.90;;;;;;5026957;28;20461;-76
2022/06/01 01:44:04;;;;;;;3.67;2.80;;;11.50;99.90;;;;;;5029648;28;20502;-76
2022/06/01 01:46:51;;;;;;;6.23;2.87;;;11.60;99.90;;;;;;5025184;28;20448;-77
2022/06/01 01:49:38;;;;;;;3.30;2.60;;;11.60;99.90;;;;;;5030946;28;20444;-76
2022/06/01 01:52:24;;;;;;;6.90;3.00;;;11.70;99.90;;;;;;5028408;28;21650;-76
2022/06/01 01:55:19;;;;;;;4.33;2.50;;;11.50;99.90;;;;;;5030765;28;20451;-76
2022/06/01 01:58:14;;;;;;;3.63;2.63;;;11.40;99.90;;;;;;5026836;28;20796;-77
2022/06/01 02:01:08;;;;;;;5.63;2.53;;;11.30;99.90;;;;;;5024227;28;20472;-76
2022/06/01 02:04:01;;;;;;;3.77;2.67;;;11.20;99.90;;;;;;5024731;28;20429;-77
2022/06/01 02:06:48;;;;;;;3.70;2.70;;;11.20;99.90;;;;;;5030733;28;20449;-76
2022/06/01 02:12:42;;;;;;;4.27;2.57;;;11.20;99.90;;;;;;5030425;28;20448;-76
2022/06/01 02:15:34;;;;;;;6.53;2.80;;;11.20;99.90;;;;;;5029418;28;20449;-76
2022/06/01 02:18:27;;;;;;;7.53;3.27;;;11.00;99.90;;;;;;5031474;28;20517;-77
2022/06/01 02:21:18;;;;;;;6.37;2.87;;;10.90;99.90;;;;;;5024839;28;20825;-76
2022/06/01 02:24:05;;;;;;;3.93;3.10;;;10.90;99.90;;;;;;5028907;28;20444;-76
2022/06/01 02:26:52;;;;;;;3.77;2.57;;;10.80;99.90;;;;;;5024384;28;20972;-76
2022/06/01 02:29:42;;;;;;;3.17;2.87;;;10.90;99.90;;;;;;5021792;28;20478;-76
2022/06/01 02:32:29;;;;;;;3.83;2.83;;;11.00;99.90;;;;;;5028133;28;20464;-76
2022/06/01 02:35:20;;;;;;;3.30;2.60;;;10.90;99.90;;;;;;5023089;28;21064;-76
2022/06/01 02:38:12;;;;;;;3.93;3.53;;;10.80;99.90;;;;;;5030714;28;20448;-76
2022/06/01 02:41:00;;;;;;;5.93;3.00;;;10.60;99.90;;;;;;5027073;28;20430;-77
2022/06/01 02:43:50;;;;;;;4.87;3.00;;;10.60;99.90;;;;;;5030221;28;20464;-76
2022/06/01 02:46:36;;;;;;;7.23;2.50;;;10.70;99.90;;;;;;5026723;28;20498;-76
2022/06/01 02:49:22;;;;;;;4.77;2.83;;;10.80;99.90;;;;;;5027965;28;21072;-76
2022/06/01 02:52:09;;;;;;;5.47;2.90;;;10.80;99.90;;;;;;5032447;28;20401;-76
2022/06/01 02:54:55;;;;;;;3.83;3.10;;;10.90;99.90;;;;;;5029755;28;20788;-77
2022/06/01 02:57:42;;;;;;;3.67;2.40;;;11.00;99.90;;;;;;5030204;28;20420;-76
2022/06/01 03:00:30;;;;;;;5.30;3.67;;;11.10;99.90;;;;;;5025190;28;20819;-76
2022/06/01 03:03:18;;;;;;;7.70;3.07;;;11.10;99.90;;;;;;5029688;28;20586;-76
2022/06/01 03:06:04;;;;;;;3.63;2.80;;;11.20;99.90;;;;;;5028417;28;20758;-76
2022/06/01 03:08:51;;;;;;;4.47;3.00;;;11.30;99.90;;;;;;5010626;28;20471;-76
2022/06/01 03:11:37;;;;;;;3.87;2.70;;;11.30;99.90;;;;;;5030076;28;20460;-76
2022/06/01 03:14:22;;;;;;;4.57;2.93;;;11.30;99.90;;;;;;5029247;28;20472;-76
2022/06/01 03:17:08;;;;;;;3.83;2.80;;;11.40;99.90;;;;;;5027076;28;20948;-76
2022/06/01 03:19:54;;;;;;;3.40;2.43;;;11.30;99.90;;;;;;5025220;28;20507;-76
2022/06/01 03:22:41;;;;;;;4.67;3.13;;;11.30;99.90;;;;;;5034402;28;20395;-76
2022/06/01 03:25:29;;;;;;;4.40;3.30;;;11.40;99.90;;;;;;5033671;28;20415;-76
2022/06/01 03:28:15;;;;;;;4.10;3.00;;;11.40;99.90;;;;;;5030913;28;21055;-76
2022/06/01 03:31:02;;;;;;;4.93;3.60;;;11.40;99.90;;;;;;5030883;28;20526;-76
2022/06/01 03:33:47;;;;;;;9.93;3.10;;;11.30;99.90;;;;;;5027890;28;20515;-76
2022/06/01 03:36:33;;;;;;;4.40;3.17;;;11.20;99.90;;;;;;5032225;28;21039;-76
2022/06/01 03:39:18;;;;;;;4.53;3.57;;;11.00;99.90;;;;;;5029273;28;20531;-76
2022/06/01 03:42:06;;;;;;;5.20;3.10;;;10.70;99.90;;;;;;5034794;28;20457;-76
2022/06/01 03:47:56;;;;;;;4.23;3.10;;;10.70;99.90;;;;;;5028347;28;20940;-76
2022/06/01 03:50:44;;;;;;;5.77;3.20;;;10.80;99.90;;;;;;5031609;28;20440;-76
2022/06/01 03:53:29;;;;;;;4.30;3.10;;;10.90;99.90;;;;;;5033464;28;20786;-76
2022/06/01 03:56:15;;;;;;;3.70;3.10;;;10.90;99.90;;;;;;5033516;28;20425;-77
2022/06/01 03:59:03;;;;;;;4.73;3.00;;;10.80;99.90;;;;;;5029315;28;20852;-77
2022/06/01 04:01:49;;;;;;;4.50;2.90;;;10.80;99.90;;;;;;5022326;28;20524;-76
2022/06/01 04:04:35;;;;;;;3.60;3.07;;;10.90;99.90;;;;;;5028628;28;20471;-76
2022/06/01 04:07:21;;;;;;;5.10;3.43;;;10.90;99.90;;;;;;5025604;28;20581;-77
2022/06/01 04:10:08;;;;;;;8.37;5.10;;;10.90;99.90;;;;;;5028993;28;20475;-76
2022/06/01 04:12:54;;;;;;;10.80;3.50;;;10.90;99.90;;;;;;5027473;28;20431;-77
2022/06/01 04:15:41;;;;;;;4.57;3.53;;;10.90;99.90;;;;;;5026202;28;20414;-76
2022/06/01 04:18:26;;;;;;;5.00;3.40;;;10.90;99.90;;;;;;5022245;28;21042;-76
2022/06/01 04:21:12;;;;;;;10.83;3.13;;;11.00;99.90;;;;;;5033386;28;20511;-76
2022/06/01 04:24:02;;;;;;;4.53;3.57;;;10.90;99.90;;;;;;5036078;28;21004;-76
2022/06/01 04:26:48;;;;;;;4.43;3.67;;;10.80;99.90;;;;;;5029980;28;20453;-76
2022/06/01 04:29:33;;;;;;;3.90;3.00;;;10.80;99.90;;;;;;5027682;28;20911;-76
2022/06/01 04:32:26;;;;;;;5.80;3.57;;;10.80;99.90;;;;;;5033240;28;20432;-76
2022/06/01 04:35:12;;;;;;;8.47;3.93;;;10.70;99.90;;;;;;5031570;28;20453;-76
2022/06/01 04:38:12;;;;;;;7.40;3.47;;;10.60;99.90;;;;;;5028992;28;20544;-76
2022/06/01 04:40:58;;;;;;;6.53;3.47;;;10.70;99.90;;;;;;5030123;28;21141;-76
2022/06/01 04:43:43;;;;;;;5.93;3.57;;;10.70;99.90;;;;;;5032235;28;20448;-76
2022/06/01 04:46:29;;;;;;;5.93;3.30;;;10.70;99.90;;;;;;5030692;28;20448;-77
2022/06/01 04:49:16;;;;;;;5.00;4.03;;;10.80;99.90;;;;;;5028053;28;20502;-76
2022/06/01 04:52:02;;;;;;;4.07;3.50;;;10.80;99.90;;;;;;5030470;28;20426;-76
2022/06/01 04:54:47;;;;;;;7.10;3.83;;;11.00;99.90;;;;;;5021567;28;20457;-76
2022/06/01 04:57:33;;;;;;;5.63;4.17;;;11.20;99.90;;;;;;5027826;28;20452;-76
2022/06/01 05:00:19;;;;;;;9.33;3.97;;;11.20;99.90;;;;;;5031024;28;20578;-76
2022/06/01 05:03:06;;;;;;;5.43;3.67;;;11.40;99.90;;;;;;5029316;28;20422;-76
2022/06/01 05:05:53;;;;;;;5.00;3.70;;;11.60;99.90;;;;;;5022507;28;20442;-76
2022/06/01 05:08:39;;;;;;;4.60;3.90;;;11.70;99.90;;;;;;5025893;28;20455;-76
2022/06/01 05:11:24;;;;;;;5.13;3.97;;;11.80;99.90;;;;;;5021098;28;20418;-76
2022/06/01 05:14:10;;;;;;;9.30;3.93;;;11.90;99.90;;;;;;5027900;28;20487;-77
2022/06/01 05:16:59;;;;;;;6.03;3.93;;;12.00;99.90;;;;;;5025058;28;20448;-76
2022/06/01 05:19:45;;;;;;;8.90;5.47;;;12.10;99.90;;;;;;5029571;28;20472;-76
2022/06/01 05:22:32;;;;;;;5.43;3.23;;;12.20;99.90;;;;;;5030814;28;20452;-76
2022/06/01 05:25:17;;;;;;;5.40;4.20;;;12.40;99.90;;;;;;5030863;28;20615;-76
2022/06/01 05:28:03;;;;;;;7.30;3.57;;;12.50;99.90;;;;;;5027840;28;20481;-76
2022/06/01 05:30:49;;;;;;;4.73;3.80;;;12.70;99.90;;;;;;5031787;28;20579;-76
2022/06/01 05:33:35;;;;;;;4.20;3.57;;;12.80;99.90;;;;;;5031481;28;20431;-76
2022/06/01 05:36:21;;;;;;;12.03;4.07;;;12.90;99.90;;;;;;5029593;28;20792;-76
2022/06/01 05:39:08;;;;;;;3.80;3.20;;;13.00;99.90;;;;;;5031387;28;20835;-76
2022/06/01 05:41:54;;;;;;;6.67;3.20;;;13.20;99.90;;;;;;5026546;28;20970;-76
2022/06/01 05:44:39;;;;;;;4.20;2.83;;;13.40;99.90;;;;;;5024448;28;20436;-76
2022/06/01 05:47:25;;;;;;;5.90;3.27;;;13.40;99.90;;;;;;5023238;28;20454;-76
2022/06/01 05:50:10;;;;;;;3.63;2.87;;;13.40;99.90;;;;;;5031588;28;21311;-76
2022/06/01 05:52:56;;;;;;;6.40;2.87;;;13.50;99.90;;;;;;5029623;28;20475;-76
2022/06/01 05:55:43;;;;;;;6.07;3.53;;;13.70;99.90;;;;;;5024474;28;20424;-76
2022/06/01 05:58:32;;;;;;;6.50;3.50;;;14.00;99.90;;;;;;5017648;28;20511;-76
2022/06/01 06:01:21;;;;;;;4.40;3.20;;;14.20;99.90;;;;;;5030967;28;20541;-76
2022/06/01 06:04:07;;;;;;;7.53;3.53;;;14.50;99.90;;;;;;5031409;28;20428;-76
2022/06/01 06:06:53;;;;;;;12.87;3.63;;;14.60;99.90;;;;;;5015430;28;20464;-77
2022/06/01 06:09:38;;;;;;;4.33;3.30;;;14.70;99.90;;;;;;5027500;28;20460;-77
2022/06/01 06:12:25;;;;;;;9.90;3.77;;;14.80;99.90;;;;;;5032411;28;20399;-76
2022/06/01 06:15:11;;;;;;;6.37;3.80;;;14.90;99.90;;;;;;5031377;28;20428;-77
2022/06/01 06:17:57;;;;;;;4.00;3.60;;;15.10;99.90;;;;;;5014291;28;20535;-76
2022/06/01 06:20:43;;;;;;;4.40;3.53;;;15.30;99.90;;;;;;5018472;28;21016;-76
2022/06/01 06:23:29;;;;;;;8.70;3.83;;;15.50;99.90;;;;;;5033606;28;20456;-77
2022/06/01 06:26:15;;;;;;;12.47;3.87;;;15.60;99.90;;;;;;5025863;28;20456;-76
2022/06/01 06:29:05;;;;;;;10.87;3.87;;;15.80;99.90;;;;;;5025975;28;20541;-77
2022/06/01 06:31:51;;;;;;;9.50;3.50;;;15.90;99.90;;;;;;5024770;28;20456;-76
2022/06/01 06:34:38;;;;;;;6.93;3.70;;;16.00;99.90;;;;;;5022261;28;21019;-76
2022/06/01 06:37:23;;;;;;;7.20;4.27;;;16.10;99.10;;;;;;5021435;28;20589;-76
2022/06/01 06:40:11;;;;;;;10.63;3.80;;;16.20;93.50;;;;;;5026380;28;20488;-77
2022/06/01 06:42:56;;;;;;;5.83;4.10;;;16.30;92.20;;;;;;5025108;28;20509;-77
2022/06/01 06:45:43;;;;;;;4.17;3.23;;;16.40;93.90;;;;;;5018600;28;20444;-77
2022/06/01 06:48:29;;;;;;;5.00;3.27;;;16.50;95.10;;;;;;5028580;28;20455;-77
2022/06/01 06:51:16;;;;;;;3.73;3.20;;;16.60;96.10;;;;;;5025155;28;20445;-76
2022/06/01 06:54:01;;;;;;;4.93;3.40;;;16.60;95.00;;;;;;5030441;28;20495;-77
2022/06/01 06:56:47;;;;;;;6.53;3.70;;;16.60;94.70;;;;;;5017680;28;20460;-76
2022/06/01 06:59:33;;;;;;;5.27;3.57;;;16.60;95.60;;;;;;5022912;28;20464;-76
2022/06/01 07:02:19;;;;;;;7.10;3.80;;;16.70;95.90;;;;;;5028213;28;20419;-76
2022/06/01 07:05:06;;;;;;;4.33;3.10;;;16.70;91.40;;;;;;5023579;28;20467;-76
2022/06/01 07:07:52;;;;;;;4.37;3.00;;;16.70;90.90;;;;;;5028490;28;20546;-77
2022/06/01 07:10:38;;;;;;;4.87;3.40;;;16.60;91.70;;;;;;5028766;28;20444;-76
2022/06/01 07:13:24;;;;;;;8.47;3.87;;;16.70;90.70;;;;;;5029832;28;20432;-76
2022/06/01 07:16:11;;;;;;;6.83;3.53;;;16.80;91.10;;;;;;5024652;28;20460;-77
2022/06/01 07:18:59;;;;;;;8.30;3.40;;;17.00;91.40;;;;;;5028134;28;20472;-77
2022/06/01 07:21:45;;;;;;;6.07;3.40;;;17.10;90.20;;;;;;5030291;28;20468;-77
2022/06/01 07:24:31;;;;;;;10.73;3.97;;;17.20;85.10;;;;;;5030666;28;20464;-77
2022/06/01 07:27:17;;;;;;;6.50;3.03;;;17.30;81.70;;;;;;5024859;28;20503;-77
2022/06/01 07:30:02;;;;;;;5.13;2.80;;;17.50;82.40;;;;;;5029814;28;20524;-77
2022/06/01 07:32:49;;;;;;;6.93;3.10;;;17.60;80.60;;;;;;5021254;28;20843;-76
2022/06/01 07:35:36;;;;;;;6.30;2.80;;;17.60;76.30;;;;;;5026594;28;20273;-75
2022/06/01 07:44:34;;;;;;;4.20;3.00;;;18.00;73.00;;;;;;5022948;28;20860;-77
2022/06/01 07:47:20;;;;;;;5.03;2.80;;;18.20;70.80;;;;;;5023729;28;20973;-76
2022/06/01 07:50:07;;;;;;;8.77;3.40;;;18.30;72.50;;;;;;5030141;28;20957;-76
2022/06/01 07:52:55;;;;;;;7.50;2.67;;;18.20;67.90;;;;;;5028482;28;20449;-76
2022/06/01 07:55:41;;;;;;;10.50;2.77;;;18.30;70.00;;;;;;5018526;28;20452;-76
2022/06/01 07:58:27;;;;;;;11.07;2.47;;;18.30;65.60;;;;;;5028700;28;21007;-77
2022/06/01 08:01:12;;;;;;;6.90;1.97;;;18.40;62.40;;;;;;5029413;28;20552;-77
2022/06/01 08:03:59;;;;;;;4.20;1.70;;;18.40;56.00;;;;;;5029422;28;20432;-76
2022/06/01 08:06:45;;;;;;;2.93;1.40;;;18.50;51.70;;;;;;5024277;28;20954;-77
2022/06/01 08:09:32;;;;;;;3.90;1.60;;;18.30;45.20;;;;;;5027374;28;20506;-76
2022/06/01 08:15:22;;;;;;;4.33;1.80;;;17.90;47.10;;;;;;5026422;28;20691;-76
2022/06/01 08:18:08;;;;;;;4.57;1.90;;;17.80;44.50;;;;;;5029124;28;20480;-76
2022/06/01 08:20:54;;;;;;;4.00;1.30;;;17.80;46.30;;;;;;5030421;28;20573;-77
2022/06/01 08:23:40;;;;;;;5.57;1.70;;;17.80;45.90;;;;;;5027517;28;20663;-76
2022/06/01 08:26:27;;;;;;;5.20;2.10;;;17.90;44.90;;;;;;5026396;28;20460;-76
2022/06/01 08:29:13;;;;;;;3.00;1.80;;;17.80;42.80;;;;;;5032003;28;20503;-76
2022/06/01 08:31:58;;;;;;;5.10;3.20;;;17.90;44.60;;;;;;5032705;28;20429;-76
2022/06/01 08:34:44;;;;;;;6.30;2.30;;;18.00;47.40;;;;;;5019259;28;20499;-76
2022/06/01 08:37:30;;;;;;;11.20;1.60;;;18.10;45.60;;;;;;5032934;28;20443;-77
2022/06/01 08:40:17;;;;;;;3.50;2.00;;;18.20;46.30;;;;;;5032801;28;20468;-76
2022/06/01 08:43:07;;;;;;;3.43;1.80;;;18.30;47.10;;;;;;5030691;28;20500;-76
2022/06/01 08:45:59;;;;;;;4.07;1.70;;;18.50;46.30;;;;;;5023633;28;20448;-76
2022/06/01 08:48:49;;;;;;;4.07;1.60;;;18.50;42.60;;;;;;5032322;28;20467;-76
2022/06/01 08:51:35;;;;;;;6.23;1.83;;;18.40;40.20;;;;;;5029776;28;20763;-76
2022/06/01 08:54:21;;;;;;;4.63;1.73;;;18.40;41.20;;;;;;5025125;28;20449;-76
2022/06/01 08:57:10;;;;;;;5.93;1.53;;;18.60;45.00;;;;;;5027607;28;20428;-76
2022/06/01 09:00:05;;;;;;;4.33;1.83;;;18.90;43.60;;;;;;5030752;28;20578;-77
2022/06/01 09:02:58;;;;;;;7.37;1.63;;;19.00;41.50;;;;;;5027136;28;20424;-76
2022/06/01 09:05:48;;;;;;;8.03;1.70;;;19.10;40.10;;;;;;5023670;28;21004;-76
2022/06/01 09:08:42;;;;;;;4.17;1.70;;;19.20;41.30;;;;;;5027117;28;21013;-77
2022/06/01 09:11:32;;;;;;;4.07;1.80;;;19.30;38.90;;;;;;5031426;28;20992;-77
2022/06/01 09:14:24;;;;;;;13.73;2.00;;;19.30;40.60;;;;;;5030379;28;20875;-76
2022/06/01 09:17:10;;;;;;;8.00;1.90;;;19.40;40.70;;;;;;5029350;28;20452;-76
2022/06/01 09:23:03;;;;;;;3.50;1.47;;;19.50;40.80;;;;;;5025704;28;20496;-76
2022/06/01 09:25:51;;;;;;;4.80;1.87;;;19.50;42.90;;;;;;5018175;28;20851;-77
2022/06/01 09:28:39;;;;;;;6.03;2.00;;;19.70;41.30;;;;;;5020673;28;21088;-76
2022/06/01 09:31:31;;;;;;;4.97;1.90;;;19.80;39.30;;;;;;5019479;28;20449;-73
2022/06/01 09:34:24;;;;;;;3.07;1.90;;;19.70;39.20;;;;;;5028050;28;20444;-73
2022/06/01 09:37:13;;;;;;;3.70;1.60;;;19.80;40.10;;;;;;5021798;28;20984;-73
2022/06/01 09:40:01;;;;;;;2.37;1.30;;;19.80;39.30;;;;;;5016860;28;20477;-73
2022/06/01 09:42:50;;;;;;;3.73;1.63;;;19.80;39.20;;;;;;5021253;28;20946;-73
2022/06/01 09:45:48;;;;;;;2.70;1.67;;;19.80;40.40;;;;;;5023860;28;20973;-74
2022/06/01 09:48:37;;;;;;;4.23;1.87;;;19.90;39.50;;;;;;5028317;28;21384;-74
2022/06/01 09:51:25;;;;;;;4.80;1.60;;;19.90;38.70;;;;;;5023184;28;20799;-74
2022/06/01 09:54:15;;;;;;;4.07;1.70;;;19.90;38.30;;;;;;5020554;28;20506;-75
2022/06/01 09:57:17;;;;;;;3.83;1.70;;;20.10;38.30;;;;;;5025286;28;20460;-75
2022/06/01 10:06:31;;;;;;;3.40;1.77;;;19.70;36.80;;;;;;5022433;28;20488;-73
2022/06/01 10:09:23;;;;;;;2.93;1.70;;;19.70;38.60;;;;;;5029514;28;20530;-73
2022/06/01 10:12:25;;;;;;;4.40;1.67;;;19.70;38.10;;;;;;5030116;28;20436;-73
2022/06/01 10:15:23;;;;;;;6.10;1.60;;;19.80;36.80;;;;;;5025549;28;20455;-73
2022/06/01 10:18:13;;;;;;;6.90;2.07;;;19.90;38.00;;;;;;5028668;28;20523;-73
2022/06/01 10:21:04;;;;;;;5.70;1.60;;;20.00;39.60;;;;;;5025896;28;20918;-74
2022/06/01 10:23:56;;;;;;;2.70;1.43;;;20.20;36.90;;;;;;5026807;28;21029;-74
2022/06/01 10:26:49;;;;;;;4.47;1.33;;;20.30;35.40;;;;;;5021301;28;20428;-73
2022/06/01 10:29:38;;;;;;;3.70;1.43;;;20.30;36.30;;;;;;5030859;28;20452;-73
2022/06/01 10:32:32;;;;;;;4.73;1.60;;;20.50;35.70;;;;;;5023630;28;20428;-73
2022/06/01 10:35:27;;;;;;;3.17;1.37;;;20.60;36.50;;;;;;5024496;28;20459;-73
2022/06/01 10:38:18;;;;;;;13.13;1.60;;;20.70;37.70;;;;;;5028772;28;20848;-74
2022/06/01 10:41:11;;;;;;;10.23;2.20;;;20.90;36.20;;;;;;5022950;28;20462;-73
2022/06/01 10:44:02;;;;;;;6.33;1.70;;;21.10;36.00;;;;;;5018880;28;20456;-74
2022/06/01 10:46:54;;;;;;;2.30;1.40;;;21.10;33.70;;;;;;5030447;28;20436;-74
2022/06/01 10:49:49;;;;;;;5.00;1.90;;;21.10;37.70;;;;;;5030355;28;20981;-73
2022/06/01 10:52:38;;;;;;;3.67;1.97;;;21.00;32.80;;;;;;5026388;28;20493;-74
2022/06/01 10:55:29;;;;;;;5.67;1.83;;;20.70;33.10;;;;;;5021758;28;21032;-73
2022/06/01 10:58:19;;;;;;;6.10;1.63;;;20.50;34.40;;;;;;5025915;28;20495;-74
2022/06/01 11:01:12;;;;;;;6.03;1.80;;;20.50;34.20;;;;;;5016623;28;20572;-74
2022/06/01 11:04:32;;;;;;;8.23;1.40;;;20.70;35.40;;;;;;5020004;28;21141;-74
2022/06/01 11:07:38;;;;;;;5.13;1.90;;;21.00;37.60;;;;;;5023082;28;20428;-73
2022/06/01 11:10:35;;;;;;;3.97;1.63;;;21.30;32.40;;;;;;5027075;28;20498;-73
2022/06/01 11:13:43;;;;;;;4.40;1.83;;;21.50;34.80;;;;;;5024532;28;20974;-74
2022/06/01 11:16:40;;;;;;;4.57;2.07;;;21.60;32.30;;;;;;5026028;28;20456;-74
2022/06/01 11:19:47;;;;;;;7.50;1.60;;;21.70;31.40;;;;;;5024470;28;20931;-73
2022/06/01 11:23:01;;;;;;;2.57;1.47;;;21.80;32.50;;;;;;5023694;28;21012;-73
2022/06/01 11:25:56;;;;;;;2.73;1.80;;;21.80;31.80;;;;;;5018561;28;20451;-73
2022/06/01 11:29:03;;;;;;;3.30;1.37;;;21.80;31.80;;;;;;5022244;28;20839;-73
2022/06/01 11:31:52;;;;;;;3.33;1.60;;;21.90;34.00;;;;;;5024672;28;20834;-73
2022/06/01 11:34:46;;;;;;;3.80;1.50;;;21.90;32.80;;;;;;5021633;28;20455;-74
2022/06/01 11:37:35;;;;;;;5.00;1.97;;;21.80;30.80;;;;;;5025898;28;20452;-74
2022/06/01 11:40:31;;;;;;;3.20;1.60;;;21.90;33.40;;;;;;5026136;28;20452;-74
2022/06/01 11:43:23;;;;;;;2.87;1.70;;;22.20;30.60;;;;;;5024312;28;20452;-74
2022/06/01 11:46:14;;;;;;;4.57;1.90;;;22.20;31.40;;;;;;5030219;28;20444;-73
2022/06/01 11:49:03;;;;;;;2.20;1.20;;;22.20;31.80;;;;;;5028994;28;20479;-74
2022/06/01 11:51:50;;;;;;;4.53;1.53;;;21.80;29.40;;;;;;5026945;28;20476;-73
2022/06/01 11:54:36;;;;;;;4.77;1.80;;;21.40;29.70;;;;;;5022328;28;20452;-74
2022/06/01 11:57:26;;;;;;;5.80;2.00;;;21.20;31.60;;;;;;5030481;28;20520;-73
2022/06/01 12:00:19;;;;;;;4.03;2.40;;;21.20;33.40;;;;;;5028216;28;20433;-73
2022/06/01 12:03:36;;;;;;;7.50;1.77;;;21.50;30.50;;;;;;5026003;28;20479;-73
2022/06/01 12:06:49;;;;;;;5.93;1.80;;;21.80;31.30;;;;;;5028929;28;20997;-74
2022/06/01 12:09:45;;;;;;;3.03;1.40;;;22.00;29.20;;;;;;5026984;28;20553;-74
2022/06/01 12:12:47;;;;;;;4.83;1.77;;;22.00;31.60;;;;;;5026516;28;20464;-73
2022/06/01 12:15:41;;;;;;;3.80;1.60;;;21.90;31.20;;;;;;5028545;28;20546;-74
2022/06/01 12:18:29;;;;;;;2.20;1.27;;;21.80;31.60;;;;;;5027416;28;20607;-74
2022/06/01 12:21:30;;;;;;;2.80;1.60;;;21.50;31.00;;;;;;5028253;28;20457;-73
2022/06/01 12:30:48;;;;;;;2.93;1.70;;;21.20;33.30;;;;;;5030773;28;20865;-74
2022/06/01 12:33:53;;;;;;;3.43;1.90;;;21.20;30.50;;;;;;5019222;28;20594;-73
2022/06/01 12:36:50;;;;;;;3.10;1.47;;;21.10;31.40;;;;;;5018740;28;20452;-73
2022/06/01 12:39:42;;;;;;;12.20;3.53;;;21.20;31.70;;;;;;5022845;28;20465;-74
2022/06/01 12:42:32;;;;;;;3.20;1.70;;;21.10;30.40;;;;;;5021053;28;20463;-73
2022/06/01 12:45:20;;;;;;;5.50;1.87;;;21.20;32.20;;;;;;5021202;28;20453;-73
2022/06/01 12:48:09;;;;;;;2.37;1.23;;;21.20;31.70;;;;;;5024108;28;20870;-73
2022/06/01 12:50:59;;;;;;;4.33;1.50;;;21.30;32.20;;;;;;5016573;28;20479;-74
2022/06/01 12:53:46;;;;;;;3.80;1.83;;;21.50;31.40;;;;;;5024058;28;20829;-73
2022/06/01 12:56:32;;;;;;;3.00;1.20;;;21.60;31.60;;;;;;5025039;28;20453;-73
2022/06/01 12:59:18;;;;;;;2.43;1.07;;;21.60;30.10;;;;;;5025430;28;20460;-73
2022/06/01 13:02:09;;;;;;;3.63;1.30;;;21.90;30.00;;;;;;5023395;28;20464;-73
2022/06/01 13:04:56;;;;;;;3.80;1.67;;;22.40;29.10;;;;;;5025505;28;20631;-73
2022/06/01 13:07:47;;;;;;;3.40;1.00;;;22.80;29.70;;;;;;5023368;28;20461;-73
2022/06/01 13:10:35;;;;;;;3.33;1.33;;;23.10;26.70;;;;;;5025116;22;20489;-72
2022/06/01 13:13:27;;;;;;;6.53;1.57;;;23.40;25.40;;;;;;5004376;28;21058;-71
2022/06/01 13:16:13;;;;;;;3.03;1.17;;;23.40;25.40;;;;;;5006346;28;20449;-72
2022/06/01 13:18:59;;;;;;;8.60;1.50;;;23.60;25.00;;;;;;5003772;28;20536;-72
2022/06/01 13:21:50;;;;;;;3.33;1.30;;;23.70;24.00;;;;;;4998476;28;21130;-72
2022/06/01 13:24:42;;;;;;;3.07;1.20;;;23.80;23.80;;;;;;5000084;28;21063;-72
2022/06/01 13:27:30;;;;;;;2.60;1.10;;;24.00;24.00;;;;;;5002444;28;20500;-72
2022/06/01 13:30:16;;;;;;;4.80;1.60;;;24.10;24.70;;;;;;4999018;28;20496;-72
2022/06/01 13:33:16;;;;;;;8.43;1.93;;;23.70;24.70;;;;;;5001027;28;20536;-72
2022/06/01 13:36:04;;;;;;;2.70;1.10;;;23.20;26.00;;;;;;5006309;28;20452;-74
2022/06/01 13:38:50;;;;;;;3.93;1.40;;;23.00;24.70;;;;;;5005228;28;20466;-74
2022/06/01 13:41:41;;;;;;;3.07;1.47;;;23.00;25.10;;;;;;5006595;28;20473;-73
2022/06/01 13:44:47;;;;;;;3.07;1.40;;;23.00;25.70;;;;;;5007586;28;20473;-73
2022/06/01 13:47:35;;;;;;;2.70;1.33;;;22.90;24.10;;;;;;5007181;28;20804;-73
2022/06/01 13:50:25;;;;;;;7.77;1.87;;;22.70;25.60;;;;;;5006757;28;20464;-74
2022/06/01 13:53:29;;;;;;;5.00;2.70;;;22.60;25.50;;;;;;5008104;28;20457;-73
2022/06/01 13:56:28;;;;;;;3.40;1.27;;;22.80;26.20;;;;;;5012108;28;20460;-74
2022/06/01 13:59:30;;;;;;;3.00;1.30;;;23.10;25.40;;;;;;5008049;28;20453;-74
2022/06/01 14:02:22;;;;;;;2.40;1.20;;;23.30;26.40;;;;;;5001430;28;20586;-74
2022/06/01 14:05:16;;;;;;;4.40;1.30;;;23.10;26.00;;;;;;5001493;28;20446;-74
2022/06/01 14:08:10;;;;;;;1.93;1.03;;;22.90;26.20;;;;;;4995962;28;20438;-74
2022/06/01 14:10:58;;;;;;;2.20;1.20;;;22.90;25.90;;;;;;4995095;28;20538;-74
2022/06/01 14:13:47;;;;;;;4.10;1.43;;;22.80;26.20;;;;;;5005797;28;20573;-74
2022/06/01 14:16:39;;;;;;;2.90;1.40;;;22.70;26.70;;;;;;5000720;28;20442;-74
2022/06/01 14:19:26;;;;;;;4.20;1.20;;;22.70;26.00;;;;;;4995135;28;20555;-74
2022/06/01 14:22:13;;;;;;;4.87;1.30;;;23.00;26.60;;;;;;5000563;28;20819;-74
2022/06/01 14:31:07;;;;;;;3.40;1.30;;;24.00;23.80;;;;;;5002460;28;20446;-73
2022/06/01 14:33:55;;;;;;;2.17;1.00;;;24.10;25.20;;;;;;5009541;28;20488;-74
2022/06/01 14:36:41;;;;;;;4.27;1.40;;;23.90;23.80;;;;;;5002649;28;20528;-74
2022/06/01 14:39:28;;;;;;;5.93;2.00;;;23.70;24.80;;;;;;5008345;28;20899;-74
2022/06/01 14:42:13;;;;;;;9.73;1.40;;;23.70;24.70;;;;;;5004321;28;20473;-74
2022/06/01 14:44:59;;;;;;;6.33;1.10;;;24.00;24.20;;;;;;5008170;28;20445;-74
2022/06/01 14:47:44;;;;;;;5.00;1.47;;;24.00;24.70;;;;;;5009344;28;20449;-73
2022/06/01 14:50:32;;;;;;;2.87;1.20;;;24.10;24.60;;;;;;5006206;28;20516;-73
2022/06/01 14:53:24;;;;;;;2.73;1.20;;;24.00;23.40;;;;;;5007588;28;20446;-73
2022/06/01 14:56:10;;;;;;;2.93;1.07;;;24.00;24.10;;;;;;5006006;28;21005;-74
2022/06/01 14:59:01;;;;;;;4.30;1.50;;;24.30;24.90;;;;;;5005429;28;20547;-73
2022/06/01 15:01:49;;;;;;;6.17;2.20;;;24.20;22.90;;;;;;5000841;28;20469;-74
2022/06/01 15:04:39;;;;;;;4.50;1.30;;;24.20;23.50;;;;;;5006089;28;20529;-73
2022/06/01 15:07:26;;;;;;;3.40;1.47;;;24.30;23.70;;;;;;5007023;28;20577;-73
2022/06/01 15:10:11;;;;;;;3.23;1.00;;;24.30;22.60;;;;;;5004914;28;20484;-73
2022/06/01 15:12:57;;;;;;;6.03;1.77;;;24.00;22.10;;;;;;5005980;28;20944;-74
2022/06/01 15:15:42;;;;;;;3.70;1.20;;;23.60;23.80;;;;;;5003716;28;20440;-74